Time;durP1;ratioP1;P1;durP2;ratioP2;P2;SDS_P1;SDS_P2;PMS_P1;PMS_P2;Temp;Humidity;BMP_temperature;BMP_pressure;BME280_temperature;BME280_humidity;BME280_pressure;Samples;Min_cycle;Max_cycle;Signal;HPM_P1;HPM_P2
2021/09/16 00:00:17;;;;;;;;;;;23.30;50.10;;;;;;8399839;28;19924;-49
2021/09/16 00:04:18;;;;;;;;;;;23.30;50.20;;;;;;8399501;28;19963;-49
2021/09/16 00:08:18;;;;;;;;;;;23.20;50.10;;;;;;8400271;28;20288;-49
2021/09/16 00:12:19;;;;;;;;;;;23.20;50.10;;;;;;8399973;28;20388;-49
2021/09/16 00:16:20;;;;;;;;;;;23.20;50.10;;;;;;8399130;28;19966;-48
2021/09/16 00:20:20;;;;;;;;;;;23.20;50.60;;;;;;8399618;28;19974;-48
2021/09/16 00:24:21;;;;;;;;;;;23.20;50.10;;;;;;8399291;28;19916;-48
2021/09/16 00:28:21;;;;;;;;;;;23.20;50.10;;;;;;8399529;28;19963;-48
2021/09/16 00:32:22;;;;;;;;;;;23.20;50.10;;;;;;8399187;28;19947;-48
2021/09/16 00:36:22;;;;;;;;;;;23.20;50.10;;;;;;8397886;28;19999;-49
2021/09/16 00:40:23;;;;;;;;;;;23.20;50.10;;;;;;8398117;28;19948;-49
2021/09/16 00:44:23;;;;;;;;;;;23.20;50.10;;;;;;8399318;28;19916;-49
2021/09/16 00:48:23;;;;;;;;;;;23.20;50.10;;;;;;8398486;28;19956;-48
2021/09/16 00:52:24;;;;;;;;;;;23.20;50.10;;;;;;8397890;28;19920;-48
2021/09/16 00:56:25;;;;;;;;;;;23.20;50.10;;;;;;8398305;28;19978;-48
2021/09/16 01:00:26;;;;;;;;;;;23.20;50.10;;;;;;8398374;28;20009;-48
2021/09/16 01:04:26;;;;;;;;;;;23.20;50.10;;;;;;8398173;28;19923;-48
2021/09/16 01:08:27;;;;;;;;;;;23.20;50.10;;;;;;8397939;28;19916;-47
2021/09/16 01:12:27;;;;;;;;;;;23.20;50.10;;;;;;8397666;28;19962;-49
2021/09/16 01:16:28;;;;;;;;;;;23.20;50.10;;;;;;8397073;28;19923;-49
2021/09/16 01:20:28;;;;;;;;;;;23.20;50.10;;;;;;8398278;28;19973;-47
2021/09/16 01:24:29;;;;;;;;;;;23.20;50.10;;;;;;8397313;28;19927;-48
2021/09/16 01:28:29;;;;;;;;;;;23.20;50.20;;;;;;8396604;28;19916;-48
2021/09/16 01:32:30;;;;;;;;;;;23.20;50.10;;;;;;8397303;28;19917;-48
2021/09/16 01:36:31;;;;;;;;;;;23.20;50.10;;;;;;8397601;28;19990;-48
2021/09/16 01:40:31;;;;;;;;;;;23.20;50.10;;;;;;8396425;28;19931;-49
2021/09/16 01:44:33;;;;;;;;;;;23.10;50.10;;;;;;8397184;28;19923;-48
2021/09/16 01:48:33;;;;;;;;;;;23.10;50.10;;;;;;8396534;28;20374;-48
2021/09/16 01:52:34;;;;;;;;;;;23.20;50.10;;;;;;8396161;28;19919;-49
2021/09/16 01:56:34;;;;;;;;;;;23.10;50.10;;;;;;8397444;28;19912;-49
2021/09/16 02:00:35;;;;;;;;;;;23.10;50.10;;;;;;8396314;28;19932;-48
2021/09/16 02:04:35;;;;;;;;;;;23.10;50.10;;;;;;8396067;28;19916;-48
2021/09/16 02:08:36;;;;;;;;;;;23.10;50.10;;;;;;8396762;28;20284;-48
2021/09/16 02:12:36;;;;;;;;;;;23.10;50.10;;;;;;8397130;28;19963;-49
2021/09/16 02:16:37;;;;;;;;;;;23.10;50.10;;;;;;8415098;28;19943;-49
2021/09/16 02:20:37;;;;;;;;;;;23.10;50.10;;;;;;8377213;28;20369;-47
2021/09/16 02:24:37;;;;;;;;;;;23.10;50.10;;;;;;8363414;28;19979;-48
2021/09/16 02:28:38;;;;;;;;;;;23.10;50.20;;;;;;8363239;28;20042;-48
2021/09/16 02:32:38;;;;;;;;;;;23.10;50.20;;;;;;8362801;28;19925;-47
2021/09/16 02:36:39;;;;;;;;;;;23.10;50.20;;;;;;8362930;28;19924;-48
2021/09/16 02:40:39;;;;;;;;;;;23.10;50.20;;;;;;8362173;28;19972;-49
2021/09/16 02:44:40;;;;;;;;;;;23.10;50.20;;;;;;8362881;28;20270;-48
2021/09/16 02:48:40;;;;;;;;;;;23.10;50.20;;;;;;8363461;28;19913;-48
2021/09/16 02:52:40;;;;;;;;;;;23.10;50.20;;;;;;8362062;28;20828;-47
2021/09/16 02:56:41;;;;;;;;;;;23.10;50.20;;;;;;8362625;28;19919;-48
2021/09/16 03:00:41;;;;;;;;;;;23.10;50.20;;;;;;8366597;28;19936;-49
2021/09/16 03:04:42;;;;;;;;;;;23.10;50.20;;;;;;8369242;28;20380;-48
2021/09/16 03:08:42;;;;;;;;;;;23.10;50.20;;;;;;8368541;28;19928;-47
2021/09/16 03:12:43;;;;;;;;;;;23.10;50.20;;;;;;8368448;28;20019;-49
2021/09/16 03:16:43;;;;;;;;;;;23.10;50.20;;;;;;8367848;28;19978;-48
2021/09/16 03:20:44;;;;;;;;;;;23.00;50.20;;;;;;8368650;28;20000;-48
2021/09/16 03:24:44;;;;;;;;;;;23.00;50.20;;;;;;8368118;28;19916;-51
2021/09/16 03:28:45;;;;;;;;;;;23.10;50.20;;;;;;8367401;28;19917;-48
2021/09/16 03:32:45;;;;;;;;;;;23.00;50.20;;;;;;8367705;28;19970;-48
2021/09/16 03:36:46;;;;;;;;;;;23.00;50.20;;;;;;8367508;28;20496;-49
2021/09/16 03:40:47;;;;;;;;;;;23.00;50.20;;;;;;8367714;28;19966;-48
2021/09/16 03:44:47;;;;;;;;;;;23.00;50.20;;;;;;8367425;28;20366;-48
2021/09/16 03:48:48;;;;;;;;;;;23.00;50.20;;;;;;8367150;28;19917;-48
2021/09/16 03:52:48;;;;;;;;;;;23.00;50.20;;;;;;8366570;28;19980;-48
2021/09/16 03:56:49;;;;;;;;;;;23.00;50.20;;;;;;8367674;28;20351;-51
2021/09/16 04:00:49;;;;;;;;;;;23.00;50.20;;;;;;8366737;28;19986;-48
2021/09/16 04:04:50;;;;;;;;;;;23.00;50.30;;;;;;8366439;28;19925;-50
2021/09/16 04:08:50;;;;;;;;;;;23.00;50.30;;;;;;8366604;28;19921;-51
2021/09/16 04:12:50;;;;;;;;;;;23.00;50.30;;;;;;8366589;28;20055;-49
2021/09/16 04:16:52;;;;;;;;;;;23.00;50.20;;;;;;8366366;28;19920;-49
2021/09/16 04:20:52;;;;;;;;;;;23.00;50.30;;;;;;8366452;28;19925;-49
2021/09/16 04:24:53;;;;;;;;;;;23.00;50.30;;;;;;8366232;28;19916;-49
2021/09/16 04:28:53;;;;;;;;;;;23.00;50.30;;;;;;8365539;28;19916;-49
2021/09/16 04:32:53;;;;;;;;;;;23.00;50.30;;;;;;8366844;28;19967;-48
2021/09/16 04:36:54;;;;;;;;;;;23.00;50.30;;;;;;8365665;28;19978;-48
2021/09/16 04:40:54;;;;;;;;;;;22.90;50.30;;;;;;8365012;28;19925;-47
2021/09/16 04:44:55;;;;;;;;;;;23.00;50.40;;;;;;8365534;28;19917;-48
2021/09/16 04:48:55;;;;;;;;;;;23.00;50.30;;;;;;8366123;28;19995;-48
2021/09/16 04:52:55;;;;;;;;;;;23.00;50.40;;;;;;8364676;28;19970;-48
2021/09/16 04:56:56;;;;;;;;;;;22.90;50.30;;;;;;8365220;28;19917;-48
2021/09/16 05:00:56;;;;;;;;;;;23.00;50.40;;;;;;8364948;28;20389;-49
2021/09/16 05:04:57;;;;;;;;;;;22.90;50.30;;;;;;8397979;28;19916;-49
2021/09/16 05:08:57;;;;;;;;;;;22.90;50.30;;;;;;8398421;28;20369;-50
2021/09/16 05:12:58;;;;;;;;;;;23.00;50.40;;;;;;8397154;28;19921;-47
2021/09/16 05:16:58;;;;;;;;;;;22.90;50.40;;;;;;8397751;28;19916;-49
2021/09/16 05:20:59;;;;;;;;;;;22.90;50.40;;;;;;8396957;28;19924;-48
2021/09/16 05:24:59;;;;;;;;;;;22.90;50.40;;;;;;8397663;28;19917;-48
2021/09/16 05:29:00;;;;;;;;;;;22.90;50.40;;;;;;8397125;28;19921;-49
2021/09/16 05:33:00;;;;;;;;;;;22.90;50.40;;;;;;8397027;28;19963;-49
2021/09/16 05:37:00;;;;;;;;;;;22.90;50.40;;;;;;8396566;28;19924;-48
2021/09/16 05:41:01;;;;;;;;;;;22.90;50.40;;;;;;8397849;28;20289;-48
2021/09/16 05:45:02;;;;;;;;;;;22.90;50.40;;;;;;8396852;28;19938;-48
2021/09/16 05:49:02;;;;;;;;;;;22.90;50.70;;;;;;8396423;28;19917;-47
2021/09/16 05:53:03;;;;;;;;;;;22.90;50.40;;;;;;8396582;28;20062;-48
2021/09/16 05:57:03;;;;;;;;;;;22.90;50.40;;;;;;8396479;28;19935;-48
2021/09/16 06:01:04;;;;;;;;;;;22.90;50.40;;;;;;8396731;28;19920;-48
2021/09/16 06:05:05;;;;;;;;;;;22.90;50.50;;;;;;8396332;28;20373;-49
2021/09/16 06:09:05;;;;;;;;;;;22.90;50.40;;;;;;8396837;28;20011;-51
2021/09/16 06:13:06;;;;;;;;;;;22.90;50.50;;;;;;8395908;28;19991;-49
2021/09/16 06:17:06;;;;;;;;;;;22.90;50.50;;;;;;8397194;28;19959;-48
2021/09/16 06:21:07;;;;;;;;;;;22.90;50.50;;;;;;8396142;28;19924;-49
2021/09/16 06:25:07;;;;;;;;;;;22.90;50.40;;;;;;8395669;28;19999;-47
2021/09/16 06:29:08;;;;;;;;;;;22.90;50.50;;;;;;8396738;28;19916;-48
2021/09/16 06:33:10;;;;;;;;;;;22.90;50.60;;;;;;8397139;28;19919;-48
2021/09/16 06:37:11;;;;;;;;;;;22.90;50.50;;;;;;8402832;28;20003;-46
2021/09/16 06:41:11;;;;;;;;;;;22.90;50.50;;;;;;8402195;28;19928;-49
2021/09/16 06:45:12;;;;;;;;;;;22.90;50.60;;;;;;8402273;28;19982;-48
2021/09/16 06:49:12;;;;;;;;;;;22.90;51.10;;;;;;8401841;28;19916;-48
2021/09/16 06:53:13;;;;;;;;;;;22.90;50.50;;;;;;8402791;28;19916;-48
2021/09/16 06:57:13;;;;;;;;;;;22.90;50.50;;;;;;8401759;28;19932;-49
2021/09/16 07:01:14;;;;;;;;;;;22.90;50.60;;;;;;8401669;28;20445;-52
2021/09/16 07:05:14;;;;;;;;;;;22.90;50.60;;;;;;8401769;28;19920;-48
2021/09/16 07:09:15;;;;;;;;;;;22.90;50.60;;;;;;8402572;28;19920;-48
2021/09/16 07:13:15;;;;;;;;;;;22.90;50.50;;;;;;8401079;28;20288;-52
2021/09/16 07:17:16;;;;;;;;;;;22.90;50.50;;;;;;8401280;28;19920;-50
2021/09/16 07:21:16;;;;;;;;;;;22.90;50.60;;;;;;8401010;28;19924;-50
2021/09/16 07:25:17;;;;;;;;;;;22.90;50.60;;;;;;8401079;28;20357;-47
2021/09/16 07:29:18;;;;;;;;;;;22.90;50.60;;;;;;8401513;28;19916;-48
2021/09/16 07:33:18;;;;;;;;;;;22.90;50.60;;;;;;8400672;28;19916;-50
2021/09/16 07:37:19;;;;;;;;;;;22.90;50.60;;;;;;8400298;28;19982;-48
2021/09/16 07:41:20;;;;;;;;;;;22.90;50.60;;;;;;8400867;28;19928;-48
2021/09/16 07:45:20;;;;;;;;;;;22.90;50.60;;;;;;8400707;28;19916;-49
2021/09/16 07:49:21;;;;;;;;;;;22.90;50.60;;;;;;8400020;28;19920;-48
2021/09/16 07:53:21;;;;;;;;;;;22.90;50.80;;;;;;8400579;28;19916;-49
2021/09/16 07:57:22;;;;;;;;;;;22.90;50.60;;;;;;8400094;28;19917;-51
2021/09/16 08:01:22;;;;;;;;;;;22.90;50.60;;;;;;8400065;28;19920;-52
2021/09/16 08:05:23;;;;;;;;;;;22.90;50.60;;;;;;8399716;28;19921;-49
2021/09/16 08:09:24;;;;;;;;;;;22.90;50.60;;;;;;8400156;28;20437;-49
2021/09/16 08:13:24;;;;;;;;;;;22.90;50.60;;;;;;8399423;28;19920;-49
2021/09/16 08:17:25;;;;;;;;;;;22.90;50.60;;;;;;8399567;28;19970;-48
2021/09/16 08:21:27;;;;;;;;;;;22.90;50.60;;;;;;8399967;28;20300;-49
2021/09/16 08:25:27;;;;;;;;;;;22.90;50.60;;;;;;8398844;28;19923;-50
2021/09/16 08:29:28;;;;;;;;;;;22.90;50.70;;;;;;8399251;28;19917;-48
2021/09/16 08:33:28;;;;;;;;;;;22.90;50.60;;;;;;8398861;28;19989;-49
2021/09/16 08:37:29;;;;;;;;;;;22.90;50.60;;;;;;8399043;28;20432;-49
2021/09/16 08:41:29;;;;;;;;;;;23.00;50.80;;;;;;8398795;28;20004;-49
2021/09/16 08:45:30;;;;;;;;;;;22.90;50.70;;;;;;8398492;28;19939;-50
2021/09/16 08:49:30;;;;;;;;;;;23.00;50.80;;;;;;8398016;28;19917;-48
2021/09/16 08:53:31;;;;;;;;;;;23.00;50.80;;;;;;8399096;28;19920;-49
2021/09/16 08:57:36;;;;;;;;;;;23.00;50.70;;;;;;8397372;28;19947;-49
2021/09/16 09:01:37;;;;;;;;;;;23.00;50.70;;;;;;8397773;28;19931;-48
2021/09/16 09:05:39;;;;;;;;;;;23.00;50.70;;;;;;8398222;28;19920;-47
2021/09/16 09:09:42;;;;;;;;;;;23.10;50.80;;;;;;8397876;28;20376;-47
2021/09/16 09:13:44;;;;;;;;;;;23.10;50.70;;;;;;8397922;28;19947;-50
2021/09/16 09:17:44;;;;;;;;;;;23.10;50.70;;;;;;8397840;28;19917;-47
2021/09/16 09:21:45;;;;;;;;;;;23.10;50.70;;;;;;8397637;28;20365;-48
2021/09/16 09:25:45;;;;;;;;;;;23.10;50.70;;;;;;8396663;28;19917;-49
2021/09/16 09:30:06;;;;;;;;;;;23.10;50.60;;;;;;8398008;28;19919;-50
2021/09/16 09:34:24;;;;;;;;;;;23.20;50.70;;;;;;8430470;28;20440;-48
2021/09/16 09:38:26;;;;;;;;;;;23.20;50.70;;;;;;8430801;28;19927;-51
2021/09/16 09:42:28;;;;;;;;;;;23.20;50.70;;;;;;8430342;28;19924;-49
2021/09/16 09:46:28;;;;;;;;;;;23.20;50.70;;;;;;8429885;28;20054;-52
2021/09/16 09:50:29;;;;;;;;;;;23.20;50.70;;;;;;8430706;28;19912;-48
2021/09/16 09:54:34;;;;;;;;;;;23.20;50.70;;;;;;8430010;28;20003;-49
2021/09/16 09:58:35;;;;;;;;;;;23.20;50.60;;;;;;8429680;28;20304;-48
2021/09/16 10:02:45;;;;;;;;;;;23.20;50.70;;;;;;8429984;28;19993;-49
2021/09/16 10:06:46;;;;;;;;;;;23.20;50.60;;;;;;8429755;28;19931;-50
2021/09/16 10:10:50;;;;;;;;;;;23.20;50.70;;;;;;8430010;28;19920;-49
2021/09/16 10:14:51;;;;;;;;;;;23.20;50.60;;;;;;8429744;28;19927;-51
2021/09/16 10:18:51;;;;;;;;;;;23.20;50.70;;;;;;8429625;28;19912;-49
2021/09/16 10:22:53;;;;;;;;;;;23.20;50.70;;;;;;8429662;28;20441;-48
2021/09/16 10:26:53;;;;;;;;;;;23.20;50.70;;;;;;8430316;28;19951;-50
2021/09/16 10:30:54;;;;;;;;;;;23.20;50.70;;;;;;8429652;28;19916;-48
2021/09/16 10:35:00;;;;;;;;;;;23.20;50.70;;;;;;8429184;28;19951;-52
2021/09/16 10:39:14;;;;;;;;;;;23.20;50.70;;;;;;8429509;28;20399;-50
2021/09/16 10:43:22;;;;;;;;;;;23.20;50.80;;;;;;8428804;28;20015;-51
2021/09/16 10:47:23;;;;;;;;;;;23.20;50.80;;;;;;8430101;28;19969;-49
2021/09/16 10:51:37;;;;;;;;;;;23.20;50.70;;;;;;8429277;28;20354;-48
2021/09/16 10:55:38;;;;;;;;;;;23.20;50.70;;;;;;8428769;28;19969;-51
2021/09/16 10:59:51;;;;;;;;;;;23.20;50.80;;;;;;8429241;28;20269;-51
2021/09/16 11:03:58;;;;;;;;;;;23.20;50.80;;;;;;8429083;28;19916;-48
2021/09/16 11:07:59;;;;;;;;;;;23.20;50.70;;;;;;8429338;28;19916;-51
2021/09/16 11:12:02;;;;;;;;;;;23.20;50.70;;;;;;8428691;28;19921;-50
2021/09/16 11:16:03;;;;;;;;;;;23.20;50.70;;;;;;8428424;28;19912;-48
2021/09/16 11:20:04;;;;;;;;;;;23.30;50.80;;;;;;8430509;28;19920;-49
2021/09/16 11:24:06;;;;;;;;;;;23.30;50.70;;;;;;8435449;28;20286;-50
2021/09/16 11:28:06;;;;;;;;;;;23.30;50.60;;;;;;8434167;28;19916;-48
2021/09/16 11:32:07;;;;;;;;;;;23.30;50.60;;;;;;8434755;28;20361;-50
2021/09/16 11:36:07;;;;;;;;;;;23.30;50.50;;;;;;8434408;28;19919;-52
2021/09/16 11:40:10;;;;;;;;;;;23.30;50.60;;;;;;8433834;28;19985;-52
2021/09/16 11:44:11;;;;;;;;;;;23.40;50.60;;;;;;8434770;28;19920;-52
2021/09/16 11:48:16;;;;;;;;;;;23.40;50.50;;;;;;8433971;28;20292;-52
2021/09/16 11:52:18;;;;;;;;;;;23.40;50.50;;;;;;8433416;28;20889;-49
2021/09/16 11:56:18;;;;;;;;;;;23.40;50.50;;;;;;8433689;28;20284;-49
2021/09/16 12:00:42;;;;;;;;;;;23.40;50.40;;;;;;8434325;28;19976;-49
2021/09/16 12:04:42;;;;;;;;;;;23.40;50.40;;;;;;8419535;28;19916;-50
2021/09/16 12:08:47;;;;;;;;;;;23.40;50.40;;;;;;8433468;28;20426;-51
2021/09/16 12:12:49;;;;;;;;;;;23.40;50.40;;;;;;8432541;28;21307;-49
2021/09/16 12:16:50;;;;;;;;;;;23.40;50.40;;;;;;8432875;28;19924;-48
2021/09/16 12:20:50;;;;;;;;;;;23.40;50.40;;;;;;8433709;28;19932;-48
2021/09/16 12:24:51;;;;;;;;;;;23.40;50.30;;;;;;8432844;28;19924;-49
2021/09/16 12:28:53;;;;;;;;;;;23.40;50.30;;;;;;8432203;28;19975;-49
2021/09/16 12:32:53;;;;;;;;;;;23.40;50.30;;;;;;8432385;28;19920;-52
2021/09/16 12:37:14;;;;;;;;;;;23.40;50.30;;;;;;8433115;28;19919;-53
2021/09/16 12:41:22;;;;;;;;;;;23.50;50.30;;;;;;8431707;28;19946;-53
2021/09/16 12:45:27;;;;;;;;;;;23.50;50.30;;;;;;8432152;28;20305;-51
2021/09/16 12:49:28;;;;;;;;;;;23.50;50.30;;;;;;8431523;28;19995;-50
2021/09/16 12:53:28;;;;;;;;;;;23.50;50.20;;;;;;8431681;28;20365;-48
2021/09/16 12:57:33;;;;;;;;;;;23.50;50.20;;;;;;8432107;28;19912;-49
2021/09/16 13:01:34;;;;;;;;;;;23.50;50.20;;;;;;8431084;28;20021;-53
2021/09/16 13:05:36;;;;;;;;;;;23.60;50.20;;;;;;8431399;28;19977;-53
2021/09/16 13:09:37;;;;;;;;;;;23.50;50.10;;;;;;8431401;28;19921;-48
2021/09/16 13:13:37;;;;;;;;;;;23.50;50.20;;;;;;8431280;28;19935;-53
2021/09/16 13:17:38;;;;;;;;;;;23.60;50.10;;;;;;8431035;28;20429;-51
2021/09/16 13:21:40;;;;;;;;;;;23.60;50.10;;;;;;8430664;28;19924;-48
2021/09/16 13:25:40;;;;;;;;;;;23.60;50.10;;;;;;8430255;28;19916;-50
2021/09/16 13:29:41;;;;;;;;;;;23.60;50.10;;;;;;8431025;28;19920;-50
2021/09/16 13:33:41;;;;;;;;;;;23.60;50.10;;;;;;8431236;28;19964;-53
2021/09/16 13:37:43;;;;;;;;;;;23.60;50.10;;;;;;8429925;28;20002;-50
2021/09/16 13:41:43;;;;;;;;;;;23.60;50.10;;;;;;8430143;28;19924;-52
2021/09/16 13:45:43;;;;;;;;;;;23.60;50.10;;;;;;8429551;28;20432;-51
2021/09/16 13:49:44;;;;;;;;;;;23.60;50.10;;;;;;8430505;28;20280;-51
2021/09/16 13:53:45;;;;;;;;;;;23.60;50.10;;;;;;8429908;28;19916;-50
2021/09/16 13:57:45;;;;;;;;;;;23.60;50.10;;;;;;8429652;28;19916;-51
2021/09/16 14:01:46;;;;;;;;;;;23.60;50.00;;;;;;8429238;28;19947;-50
2021/09/16 14:05:47;;;;;;;;;;;23.60;50.00;;;;;;8429918;28;19912;-51
2021/09/16 14:09:47;;;;;;;;;;;23.60;50.10;;;;;;8430674;28;20421;-47
2021/09/16 14:13:47;;;;;;;;;;;23.60;50.00;;;;;;8429263;28;19965;-47
2021/09/16 14:17:48;;;;;;;;;;;23.60;50.00;;;;;;8429403;28;20011;-47
2021/09/16 14:21:48;;;;;;;;;;;23.70;50.00;;;;;;8430056;28;20323;-47
2021/09/16 14:25:49;;;;;;;;;;;23.60;50.00;;;;;;8429665;28;19919;-47
2021/09/16 14:29:50;;;;;;;;;;;23.60;50.00;;;;;;8429393;28;19951;-47
2021/09/16 14:33:50;;;;;;;;;;;23.60;49.90;;;;;;8429313;28;20328;-47
2021/09/16 14:37:50;;;;;;;;;;;23.60;49.90;;;;;;8428618;28;19926;-49
2021/09/16 14:41:51;;;;;;;;;;;23.70;50.00;;;;;;8429686;28;20438;-50
2021/09/16 14:45:51;;;;;;;;;;;23.70;50.00;;;;;;8429224;28;19969;-51
2021/09/16 14:49:52;;;;;;;;;;;23.70;50.00;;;;;;8428697;28;19962;-51
2021/09/16 14:53:52;;;;;;;;;;;23.70;50.00;;;;;;8428930;28;19955;-50
2021/09/16 14:57:52;;;;;;;;;;;23.70;50.00;;;;;;8434868;28;19912;-51
2021/09/16 15:01:53;;;;;;;;;;;23.70;50.00;;;;;;8435337;28;19943;-48
2021/09/16 15:05:53;;;;;;;;;;;23.70;50.00;;;;;;8435300;28;20002;-49
2021/09/16 15:09:54;;;;;;;;;;;23.70;50.00;;;;;;8435236;28;19924;-50
2021/09/16 15:13:54;;;;;;;;;;;23.70;50.00;;;;;;8434403;28;20003;-52
2021/09/16 15:17:55;;;;;;;;;;;23.70;50.00;;;;;;8435927;28;19981;-48
2021/09/16 15:21:55;;;;;;;;;;;23.70;50.00;;;;;;8434610;28;19930;-49
2021/09/16 15:25:56;;;;;;;;;;;23.70;50.00;;;;;;8433835;28;19969;-49
2021/09/16 15:29:57;;;;;;;;;;;23.70;50.00;;;;;;8434658;28;19917;-51
2021/09/16 15:33:58;;;;;;;;;;;23.70;50.00;;;;;;8434581;28;20003;-51
2021/09/16 15:37:58;;;;;;;;;;;23.70;50.00;;;;;;8434056;28;19916;-52
2021/09/16 15:41:59;;;;;;;;;;;23.70;50.00;;;;;;8434116;28;19931;-48
2021/09/16 15:45:59;;;;;;;;;;;23.70;50.00;;;;;;8433306;28;19916;-47
2021/09/16 15:50:00;;;;;;;;;;;23.70;50.00;;;;;;8429232;28;20390;-46
2021/09/16 15:54:00;;;;;;;;;;;23.70;50.00;;;;;;8430629;28;19965;-48
2021/09/16 15:58:01;;;;;;;;;;;23.70;50.00;;;;;;8427671;28;20014;-49
2021/09/16 16:02:02;;;;;;;;;;;23.80;50.00;;;;;;8422014;28;19932;-49
2021/09/16 16:06:03;;;;;;;;;;;23.70;50.00;;;;;;8425133;28;19966;-48
2021/09/16 16:10:04;;;;;;;;;;;23.70;49.90;;;;;;8430010;28;20011;-48
2021/09/16 16:14:05;;;;;;;;;;;23.70;50.00;;;;;;8426612;28;19941;-48
2021/09/16 16:18:05;;;;;;;;;;;23.70;50.00;;;;;;8412480;28;19916;-49
2021/09/16 16:22:06;;;;;;;;;;;23.70;50.00;;;;;;8409029;28;19924;-49
2021/09/16 16:26:06;;;;;;;;;;;23.70;50.00;;;;;;8399411;28;19995;-49
2021/09/16 16:30:09;;;;;;;;;;;23.70;50.00;;;;;;8399390;28;19912;-48
2021/09/16 16:34:09;;;;;;;;;;;23.70;50.00;;;;;;8417713;28;20003;-48
2021/09/16 16:38:09;;;;;;;;;;;23.70;50.00;;;;;;8401185;28;20351;-49
2021/09/16 16:42:10;;;;;;;;;;;23.70;50.00;;;;;;8397924;28;20264;-48
2021/09/16 16:46:10;;;;;;;;;;;23.70;50.00;;;;;;8398270;28;20366;-49
2021/09/16 16:50:12;;;;;;;;;;;23.70;50.00;;;;;;8398531;28;19925;-48
2021/09/16 16:54:12;;;;;;;;;;;23.70;50.00;;;;;;8398051;28;19920;-49
2021/09/16 16:58:13;;;;;;;;;;;23.70;50.10;;;;;;8397593;28;19999;-51
2021/09/16 17:02:13;;;;;;;;;;;23.70;50.10;;;;;;8399182;28;20304;-48
2021/09/16 17:06:14;;;;;;;;;;;23.70;50.10;;;;;;8398066;28;19917;-47
2021/09/16 17:10:14;;;;;;;;;;;23.70;50.10;;;;;;8416461;28;20051;-47
2021/09/16 17:14:15;;;;;;;;;;;23.70;50.10;;;;;;8418042;28;19970;-46
2021/09/16 17:18:15;;;;;;;;;;;23.70;50.10;;;;;;8410920;28;19916;-49
2021/09/16 17:22:16;;;;;;;;;;;23.70;50.10;;;;;;8397801;28;20453;-48
2021/09/16 17:26:17;;;;;;;;;;;23.70;50.10;;;;;;8396595;28;19916;-47
2021/09/16 17:30:17;;;;;;;;;;;23.70;50.10;;;;;;8396914;28;20072;-47
2021/09/16 17:34:18;;;;;;;;;;;23.70;50.10;;;;;;8396697;28;19923;-48
2021/09/16 17:38:18;;;;;;;;;;;23.70;50.10;;;;;;8397371;28;19920;-48
2021/09/16 17:42:19;;;;;;;;;;;23.60;50.10;;;;;;8395894;28;20003;-50
2021/09/16 17:46:19;;;;;;;;;;;23.60;50.10;;;;;;8395873;28;20012;-49
2021/09/16 17:50:20;;;;;;;;;;;23.60;50.10;;;;;;8397021;28;20285;-48
2021/09/16 17:54:20;;;;;;;;;;;23.60;50.10;;;;;;8406535;28;19920;-49
2021/09/16 17:58:21;;;;;;;;;;;23.60;50.10;;;;;;8397158;28;20377;-48
2021/09/16 18:02:22;;;;;;;;;;;23.60;50.20;;;;;;8395997;28;20385;-48
2021/09/16 18:06:22;;;;;;;;;;;23.60;50.20;;;;;;8406362;28;19916;-48
2021/09/16 18:10:23;;;;;;;;;;;23.60;50.20;;;;;;8426461;28;19943;-49
2021/09/16 18:14:23;;;;;;;;;;;23.60;50.20;;;;;;8396721;28;19916;-49
2021/09/16 18:18:24;;;;;;;;;;;23.60;50.20;;;;;;8409798;28;19916;-47
2021/09/16 18:22:25;;;;;;;;;;;23.60;50.20;;;;;;8413042;28;19929;-51
2021/09/16 18:26:25;;;;;;;;;;;23.60;50.20;;;;;;8395789;28;19917;-50
2021/09/16 18:30:26;;;;;;;;;;;23.60;50.20;;;;;;8400209;28;19917;-48
2021/09/16 18:34:26;;;;;;;;;;;23.60;50.20;;;;;;8402265;28;20035;-50
2021/09/16 18:38:27;;;;;;;;;;;23.60;50.20;;;;;;8414568;28;19917;-49
2021/09/16 18:42:27;;;;;;;;;;;23.60;50.20;;;;;;8401791;28;19920;-48
2021/09/16 18:46:27;;;;;;;;;;;23.60;50.20;;;;;;8397515;28;20150;-47
2021/09/16 18:50:28;;;;;;;;;;;23.60;50.20;;;;;;8400116;28;19917;-50
2021/09/16 18:54:29;;;;;;;;;;;23.60;50.20;;;;;;8398559;28;20014;-50
2021/09/16 18:58:30;;;;;;;;;;;23.60;50.10;;;;;;8388185;28;20274;-49
2021/09/16 19:02:30;;;;;;;;;;;23.50;50.10;;;;;;8368370;28;19955;-49
2021/09/16 19:06:30;;;;;;;;;;;23.50;50.10;;;;;;8387221;28;19928;-48
2021/09/16 19:10:31;;;;;;;;;;;23.50;50.10;;;;;;8374580;28;19924;-46
2021/09/16 19:14:31;;;;;;;;;;;23.60;50.10;;;;;;8371973;28;20030;-47
2021/09/16 19:18:32;;;;;;;;;;;23.50;50.10;;;;;;8392017;28;19917;-50
2021/09/16 19:22:33;;;;;;;;;;;23.50;50.10;;;;;;8401400;28;19920;-50
2021/09/16 19:26:36;;;;;;;;;;;23.50;50.10;;;;;;8371163;28;19917;-50
2021/09/16 19:30:39;;;;;;;;;;;23.60;50.10;;;;;;8368712;28;19920;-49
2021/09/16 19:34:40;;;;;;;;;;;23.50;50.10;;;;;;8367480;28;20008;-49
2021/09/16 19:38:40;;;;;;;;;;;23.50;50.00;;;;;;8367898;28;19913;-48
2021/09/16 19:42:41;;;;;;;;;;;23.50;50.00;;;;;;8367388;28;20019;-48
2021/09/16 19:46:41;;;;;;;;;;;23.50;50.00;;;;;;8367076;28;19921;-48
2021/09/16 19:50:42;;;;;;;;;;;23.50;50.00;;;;;;8367381;28;19916;-49
2021/09/16 19:54:42;;;;;;;;;;;23.50;50.00;;;;;;8367259;28;20006;-48
2021/09/16 19:58:43;;;;;;;;;;;23.50;50.00;;;;;;8367259;28;20019;-48
2021/09/16 20:02:43;;;;;;;;;;;23.50;50.00;;;;;;8366991;28;20309;-48
2021/09/16 20:06:43;;;;;;;;;;;23.50;50.00;;;;;;8366793;28;19912;-48
2021/09/16 20:10:44;;;;;;;;;;;23.50;49.90;;;;;;8366577;28;19920;-48
2021/09/16 20:14:44;;;;;;;;;;;23.50;50.00;;;;;;8367601;28;19913;-48
2021/09/16 20:18:45;;;;;;;;;;;23.50;50.00;;;;;;8366483;28;19924;-49
2021/09/16 20:22:45;;;;;;;;;;;23.50;49.90;;;;;;8365896;28;20477;-52
2021/09/16 20:26:46;;;;;;;;;;;23.40;49.90;;;;;;8366019;28;20393;-48
2021/09/16 20:30:46;;;;;;;;;;;23.50;49.90;;;;;;8366130;28;20495;-51
2021/09/16 20:34:47;;;;;;;;;;;23.40;49.90;;;;;;8366361;28;19916;-49
2021/09/16 20:38:47;;;;;;;;;;;23.40;49.90;;;;;;8365800;28;19917;-48
2021/09/16 20:42:48;;;;;;;;;;;23.40;49.90;;;;;;8365536;28;19963;-48
2021/09/16 20:46:48;;;;;;;;;;;23.40;49.90;;;;;;8365004;28;19921;-48
2021/09/16 20:50:51;;;;;;;;;;;23.40;49.90;;;;;;8366155;28;19913;-48
2021/09/16 20:54:52;;;;;;;;;;;23.40;49.90;;;;;;8364346;28;20289;-51
2021/09/16 20:58:52;;;;;;;;;;;23.40;49.90;;;;;;8364780;28;19917;-51
2021/09/16 21:02:53;;;;;;;;;;;23.40;49.90;;;;;;8365097;28;19934;-51
2021/09/16 21:06:53;;;;;;;;;;;23.40;49.80;;;;;;8365709;28;19925;-47
2021/09/16 21:10:55;;;;;;;;;;;23.40;49.90;;;;;;8364582;28;20003;-49
2021/09/16 21:14:56;;;;;;;;;;;23.40;49.80;;;;;;8364930;28;19944;-49
2021/09/16 21:18:56;;;;;;;;;;;23.40;49.90;;;;;;8364466;28;19917;-51
2021/09/16 21:22:58;;;;;;;;;;;23.40;49.80;;;;;;8362486;28;19970;-48
2021/09/16 21:26:59;;;;;;;;;;;23.40;49.80;;;;;;8365192;28;19913;-48
2021/09/16 21:30:59;;;;;;;;;;;23.40;49.90;;;;;;8363800;28;20004;-47
2021/09/16 21:35:00;;;;;;;;;;;23.40;49.90;;;;;;8364093;28;19917;-49
2021/09/16 21:39:02;;;;;;;;;;;23.40;49.80;;;;;;8363926;28;20326;-52
2021/09/16 21:43:02;;;;;;;;;;;23.40;49.90;;;;;;8363957;28;19967;-46
2021/09/16 21:47:04;;;;;;;;;;;23.40;49.90;;;;;;8363587;28;19962;-49
2021/09/16 21:51:04;;;;;;;;;;;23.30;49.80;;;;;;8363414;28;19992;-47
2021/09/16 21:55:05;;;;;;;;;;;23.40;49.90;;;;;;8363192;28;20003;-49
2021/09/16 21:59:06;;;;;;;;;;;23.40;49.90;;;;;;8363458;28;19913;-51
2021/09/16 22:03:07;;;;;;;;;;;23.30;49.80;;;;;;8381454;28;19920;-48
2021/09/16 22:07:07;;;;;;;;;;;23.30;49.80;;;;;;8371394;28;19924;-49
2021/09/16 22:11:09;;;;;;;;;;;23.30;49.80;;;;;;8363104;28;19928;-51
2021/09/16 22:15:10;;;;;;;;;;;23.30;49.80;;;;;;8363348;28;19913;-50
2021/09/16 22:19:10;;;;;;;;;;;23.30;49.80;;;;;;8363468;28;20336;-48
2021/09/16 22:23:11;;;;;;;;;;;23.30;49.80;;;;;;8363329;28;19972;-49
2021/09/16 22:27:13;;;;;;;;;;;23.30;49.80;;;;;;8362981;28;19924;-49
2021/09/16 22:31:14;;;;;;;;;;;23.30;49.80;;;;;;8362530;28;19959;-50
2021/09/16 22:35:14;;;;;;;;;;;23.30;49.80;;;;;;8363865;28;19952;-49
2021/09/16 22:39:14;;;;;;;;;;;23.30;49.80;;;;;;8363157;28;19968;-48
2021/09/16 22:43:15;;;;;;;;;;;23.30;49.80;;;;;;8362251;28;19921;-49
2021/09/16 22:47:15;;;;;;;;;;;23.30;49.80;;;;;;8363008;28;20294;-48
2021/09/16 22:51:16;;;;;;;;;;;23.30;49.80;;;;;;8362671;28;19919;-48
2021/09/16 22:55:16;;;;;;;;;;;23.30;49.80;;;;;;8362764;28;20296;-48
2021/09/16 22:59:17;;;;;;;;;;;23.30;49.80;;;;;;8362861;28;19917;-48
2021/09/16 23:03:17;;;;;;;;;;;23.30;49.80;;;;;;8362366;28;19967;-48
2021/09/16 23:07:18;;;;;;;;;;;23.30;49.80;;;;;;8361943;28;20313;-51
2021/09/16 23:11:18;;;;;;;;;;;23.30;49.80;;;;;;8363382;28;20366;-48
2021/09/16 23:15:19;;;;;;;;;;;23.20;49.70;;;;;;8362820;28;19947;-49
2021/09/16 23:19:19;;;;;;;;;;;23.20;49.70;;;;;;8368121;28;19925;-49